Airfield :
LOGIN :

Register | Disclaimer

   EN    FR    IT 

 










Legend :    VFR   Marginal VFR   IFR   Intensive IFR   Very Intensive IFR
Visi :
Ceiling :
>= 8 km
>= 3000ft
5 to 8 km
1000 to 3000 ft
1500m to 5 km
500 to 1000 ft
800 to 1500m
200 to 500 ft
< 800m
< 200 ft
Symbols :   Thunderstorms  Fog  Heavy snow  Heavy precipitations  Wind > 20 kt
SIGMETs :     Misc.  Thunderstorms  Icing  Turbulence  Mountain Waves  Volcanic Ashes







- Airport Elevation : 202 ft
- IATA code : SQZ


EGXP - RAF Scampton

CURRENT METAR :
  • 191750Z AUTO 16013KT 5000 // FEW010/// BKN023/// BKN060/// 16/14 Q0998

EXPIRED METARs :
  • 191650Z AUTO 16011KT 7000 // FEW009/// BKN019/// 16/14 Q0998
  • 191550Z AUTO 14008KT 4600 // BKN007/// BKN016/// 16/15 Q0998

Expired Forecast.
No reported NOTAMs for that airfield.
1 SIGMET reported for the London FIR (EGTT) :
 
Severe turbulence
EGTT SIGMET 02 VALID 191720/192020 EGRR
EGTT LONDON FIR SEV TURB FCST WI N5210 W00549 - N4946 W00315 - N4909 W00623 - N5100 W00800 - N5210 W00549 SFC/FL060 MOV E 20KT WKN=



MET'MAP, your aeronautical weather chart ! - Copyright ORBIFLY December 2007 - Disclaimer

ORBIFLY MET'MAP TEAM :

Programming & Development : Alexandra Zaïnal
Concept & Development : Baudouin d'Aumeries
Co-Development & Prog : Marc-Olivier Méhu
Technical & hardware support : Manuel Goepfert

Contact : metmap@orbifly.com




SOURCES & CREDITS :

   NOAA